sensor_id;sensor_type;location;lat;lon;timestamp;pressure;altitude;pressure_sealevel;temperature;humidity
13011;BME280;6786;57.632;11.962;2024-03-06T00:00:45;102185.91;;;18.15;39.85
13011;BME280;6786;57.632;11.962;2024-03-06T00:03:14;102185.91;;;18.15;39.76
13011;BME280;6786;57.632;11.962;2024-03-06T00:05:43;102192.09;;;18.16;39.84
13011;BME280;6786;57.632;11.962;2024-03-06T00:08:13;102111.22;;;17.69;39.77
13011;BME280;6786;57.632;11.962;2024-03-06T00:10:42;102195.75;;;18.15;39.89
13011;BME280;6786;57.632;11.962;2024-03-06T00:13:12;102194.88;;;18.14;39.75
13011;BME280;6786;57.632;11.962;2024-03-06T00:15:40;102192.28;;;18.13;39.90
13011;BME280;6786;57.632;11.962;2024-03-06T00:18:09;102186.94;;;18.13;39.85
13011;BME280;6786;57.632;11.962;2024-03-06T00:20:38;102197.66;;;18.13;39.78
13011;BME280;6786;57.632;11.962;2024-03-06T00:23:09;102195.94;;;18.12;39.74
13011;BME280;6786;57.632;11.962;2024-03-06T00:25:39;102186.94;;;18.13;39.90
13011;BME280;6786;57.632;11.962;2024-03-06T00:28:07;102179.88;;;18.12;39.80
13011;BME280;6786;57.632;11.962;2024-03-06T00:30:36;102189.63;;;18.13;39.84
13011;BME280;6786;57.632;11.962;2024-03-06T00:33:04;102181.59;;;18.13;39.70
13011;BME280;6786;57.632;11.962;2024-03-06T00:35:33;102185.22;;;18.12;39.79
13011;BME280;6786;57.632;11.962;2024-03-06T00:38:01;102187.81;;;18.13;39.69
13011;BME280;6786;57.632;11.962;2024-03-06T00:40:30;102181.59;;;18.13;39.70
13011;BME280;6786;57.632;11.962;2024-03-06T00:43:00;102176.25;;;18.13;39.88
13011;BME280;6786;57.632;11.962;2024-03-06T00:45:29;102181.59;;;18.13;39.69
13011;BME280;6786;57.632;11.962;2024-03-06T00:47:58;102180.75;;;18.12;39.76
13011;BME280;6786;57.632;11.962;2024-03-06T00:50:27;102185.22;;;18.12;39.64
13011;BME280;6786;57.632;11.962;2024-03-06T00:52:55;102174.72;;;18.09;39.85
13011;BME280;6786;57.632;11.962;2024-03-06T00:55:23;102181.59;;;18.13;39.83
13011;BME280;6786;57.632;11.962;2024-03-06T00:57:52;102180.75;;;18.12;39.78
13011;BME280;6786;57.632;11.962;2024-03-06T01:00:23;102174.72;;;18.09;39.68
13011;BME280;6786;57.632;11.962;2024-03-06T01:02:51;102182.47;;;18.13;39.63
13011;BME280;6786;57.632;11.962;2024-03-06T01:05:19;102183.34;;;18.14;39.57
13011;BME280;6786;57.632;11.962;2024-03-06T01:07:48;102192.28;;;18.13;39.72
13011;BME280;6786;57.632;11.962;2024-03-06T01:10:17;102186.94;;;18.13;39.62
13011;BME280;6786;57.632;11.962;2024-03-06T01:12:45;102179.88;;;18.12;39.59
13011;BME280;6786;57.632;11.962;2024-03-06T01:15:14;102188.78;;;18.12;39.77
13011;BME280;6786;57.632;11.962;2024-03-06T01:17:44;102181.59;;;18.13;39.78
13011;BME280;6786;57.632;11.962;2024-03-06T01:20:13;102184.25;;;18.13;39.75
13011;BME280;6786;57.632;11.962;2024-03-06T01:22:42;102191.47;;;18.12;39.58
13011;BME280;6786;57.632;11.962;2024-03-06T01:25:12;102181.59;;;18.13;39.63
13011;BME280;6786;57.632;11.962;2024-03-06T01:27:41;102186.94;;;18.13;39.62
13011;BME280;6786;57.632;11.962;2024-03-06T01:30:10;102171.94;;;18.10;39.72
13011;BME280;6786;57.632;11.962;2024-03-06T01:32:39;102181.59;;;18.13;39.65
13011;BME280;6786;57.632;11.962;2024-03-06T01:35:09;102176.25;;;18.13;39.60
13011;BME280;6786;57.632;11.962;2024-03-06T01:37:38;102172.63;;;18.14;39.55
13011;BME280;6786;57.632;11.962;2024-03-06T01:40:07;102152.16;;;17.99;39.51
13011;BME280;6786;57.632;11.962;2024-03-06T01:42:36;102164.00;;;18.09;39.46
13011;BME280;6786;57.632;11.962;2024-03-06T01:45:06;102173.56;;;18.13;39.58
13011;BME280;6786;57.632;11.962;2024-03-06T01:47:35;102170.88;;;18.13;39.59
13011;BME280;6786;57.632;11.962;2024-03-06T01:50:05;102172.63;;;18.14;39.63
13011;BME280;6786;57.632;11.962;2024-03-06T01:52:39;102173.56;;;18.13;39.71
13011;BME280;6786;57.632;11.962;2024-03-06T01:55:10;102163.81;;;18.12;39.67
13011;BME280;6786;57.632;11.962;2024-03-06T01:57:39;102161.25;;;18.10;39.72
13011;BME280;6786;57.632;11.962;2024-03-06T02:00:09;102156.75;;;18.11;39.69
13011;BME280;6786;57.632;11.962;2024-03-06T02:02:42;102157.69;;;18.10;39.53
13011;BME280;6786;57.632;11.962;2024-03-06T02:05:11;102162.97;;;18.11;39.53
13011;BME280;6786;57.632;11.962;2024-03-06T02:07:43;102169.19;;;18.12;39.51
13011;BME280;6786;57.632;11.962;2024-03-06T02:10:12;102156.75;;;18.11;39.52
13011;BME280;6786;57.632;11.962;2024-03-06T02:12:41;102156.66;;;18.12;39.56
13011;BME280;6786;57.632;11.962;2024-03-06T02:15:10;102147.78;;;18.12;39.59
13011;BME280;6786;57.632;11.962;2024-03-06T02:17:40;102154.84;;;18.13;39.48
13011;BME280;6786;57.632;11.962;2024-03-06T02:20:10;102150.34;;;18.13;39.48
13011;BME280;6786;57.632;11.962;2024-03-06T02:22:43;102151.22;;;18.14;39.51
13011;BME280;6786;57.632;11.962;2024-03-06T02:25:11;102142.41;;;18.12;39.61
13011;BME280;6786;57.632;11.962;2024-03-06T02:27:42;102153.13;;;18.12;39.55
13011;BME280;6786;57.632;11.962;2024-03-06T02:30:11;102142.41;;;18.12;39.53
13011;BME280;6786;57.632;11.962;2024-03-06T02:32:40;102143.28;;;18.12;39.57
13011;BME280;6786;57.632;11.962;2024-03-06T02:35:10;102155.81;;;18.12;39.58
13011;BME280;6786;57.632;11.962;2024-03-06T02:37:42;102157.69;;;18.10;39.59
13011;BME280;6786;57.632;11.962;2024-03-06T02:40:12;102162.97;;;18.11;39.58
13011;BME280;6786;57.632;11.962;2024-03-06T02:42:40;102162.03;;;18.12;39.36
13011;BME280;6786;57.632;11.962;2024-03-06T02:45:09;102154.84;;;18.13;39.41
13011;BME280;6786;57.632;11.962;2024-03-06T02:47:38;102162.84;;;18.13;39.39
13011;BME280;6786;57.632;11.962;2024-03-06T02:50:07;102163.81;;;18.12;39.46
13011;BME280;6786;57.632;11.962;2024-03-06T02:52:35;102081.03;;;17.67;39.39
13011;BME280;6786;57.632;11.962;2024-03-06T02:55:06;102157.50;;;18.13;39.47
13011;BME280;6786;57.632;11.962;2024-03-06T02:57:35;102168.22;;;18.13;39.54
13011;BME280;6786;57.632;11.962;2024-03-06T03:00:04;102167.28;;;18.14;39.54
13011;BME280;6786;57.632;11.962;2024-03-06T03:02:36;102175.41;;;18.12;39.42
13011;BME280;6786;57.632;11.962;2024-03-06T03:05:05;102165.72;;;18.10;39.40
13011;BME280;6786;57.632;11.962;2024-03-06T03:07:34;102157.50;;;18.13;39.49
13011;BME280;6786;57.632;11.962;2024-03-06T03:10:06;102168.22;;;18.13;39.48
13011;BME280;6786;57.632;11.962;2024-03-06T03:12:35;102165.53;;;18.13;39.32
13011;BME280;6786;57.632;11.962;2024-03-06T03:15:04;102163.81;;;18.12;39.44
13011;BME280;6786;57.632;11.962;2024-03-06T03:17:33;102170.88;;;18.13;39.36
13011;BME280;6786;57.632;11.962;2024-03-06T03:20:02;102172.63;;;18.14;39.41
13011;BME280;6786;57.632;11.962;2024-03-06T03:22:37;102171.66;;;18.15;39.38
13011;BME280;6786;57.632;11.962;2024-03-06T03:25:09;102177.97;;;18.14;39.38
13011;BME280;6786;57.632;11.962;2024-03-06T03:27:38;102170.88;;;18.13;39.38
13011;BME280;6786;57.632;11.962;2024-03-06T03:30:08;102172.63;;;18.14;39.39
13011;BME280;6786;57.632;11.962;2024-03-06T03:32:37;102165.53;;;18.13;39.42
13011;BME280;6786;57.632;11.962;2024-03-06T03:35:07;102165.53;;;18.13;39.43
13011;BME280;6786;57.632;11.962;2024-03-06T03:37:36;102152.25;;;18.11;39.42
13011;BME280;6786;57.632;11.962;2024-03-06T03:40:08;102154.84;;;18.13;39.39
13011;BME280;6786;57.632;11.962;2024-03-06T03:42:38;102154.00;;;18.12;39.48
13011;BME280;6786;57.632;11.962;2024-03-06T03:45:08;102156.75;;;18.11;39.30
13011;BME280;6786;57.632;11.962;2024-03-06T03:47:37;102143.56;;;18.08;39.53
13011;BME280;6786;57.632;11.962;2024-03-06T03:50:06;102158.38;;;18.13;39.32
13011;BME280;6786;57.632;11.962;2024-03-06T03:52:45;102068.13;;;17.59;39.25
13011;BME280;6786;57.632;11.962;2024-03-06T03:55:17;102118.69;;;17.92;39.33
13011;BME280;6786;57.632;11.962;2024-03-06T03:57:45;102161.16;;;18.12;39.26
13011;BME280;6786;57.632;11.962;2024-03-06T04:00:14;102073.19;;;17.63;39.39
13011;BME280;6786;57.632;11.962;2024-03-06T04:02:43;102166.69;;;18.09;39.41
13011;BME280;6786;57.632;11.962;2024-03-06T04:05:12;102005.03;;;17.13;39.36
13011;BME280;6786;57.632;11.962;2024-03-06T04:07:41;102171.75;;;18.13;39.40
13011;BME280;6786;57.632;11.962;2024-03-06T04:10:11;102186.94;;;18.13;39.33
13011;BME280;6786;57.632;11.962;2024-03-06T04:12:39;102171.75;;;18.13;39.28
13011;BME280;6786;57.632;11.962;2024-03-06T04:15:09;102093.28;;;17.71;39.39
13011;BME280;6786;57.632;11.962;2024-03-06T04:17:37;102169.19;;;18.12;39.37
13011;BME280;6786;57.632;11.962;2024-03-06T04:20:08;102149.59;;;17.97;39.35
13011;BME280;6786;57.632;11.962;2024-03-06T04:22:39;102152.91;;;18.01;39.20
13011;BME280;6786;57.632;11.962;2024-03-06T04:25:08;102098.03;;;17.66;39.34
13011;BME280;6786;57.632;11.962;2024-03-06T04:27:38;102174.53;;;18.12;39.21
13011;BME280;6786;57.632;11.962;2024-03-06T04:30:07;102177.97;;;18.14;39.20
13011;BME280;6786;57.632;11.962;2024-03-06T04:32:36;102176.25;;;18.13;39.32
13011;BME280;6786;57.632;11.962;2024-03-06T04:35:05;102176.25;;;18.13;39.22
13011;BME280;6786;57.632;11.962;2024-03-06T04:37:34;102174.53;;;18.12;39.31
13011;BME280;6786;57.632;11.962;2024-03-06T04:40:03;102176.25;;;18.13;39.26
13011;BME280;6786;57.632;11.962;2024-03-06T04:42:34;102183.72;;;18.08;39.21
13011;BME280;6786;57.632;11.962;2024-03-06T04:45:09;102181.03;;;18.08;39.14
13011;BME280;6786;57.632;11.962;2024-03-06T04:47:38;102183.63;;;18.09;39.27
13011;BME280;6786;57.632;11.962;2024-03-06T04:50:08;102179.88;;;18.12;39.19
13011;BME280;6786;57.632;11.962;2024-03-06T04:52:38;102097.44;;;17.60;39.34
13011;BME280;6786;57.632;11.962;2024-03-06T04:55:08;102183.53;;;18.11;39.49
13011;BME280;6786;57.632;11.962;2024-03-06T04:57:38;102183.53;;;18.11;39.13
13011;BME280;6786;57.632;11.962;2024-03-06T05:00:10;102193.25;;;18.12;39.32
13011;BME280;6786;57.632;11.962;2024-03-06T05:02:39;102188.28;;;18.06;39.16
13011;BME280;6786;57.632;11.962;2024-03-06T05:05:26;102192.47;;;18.10;39.27
13011;BME280;6786;57.632;11.962;2024-03-06T05:08:13;102196.81;;;18.12;39.10
13011;BME280;6786;57.632;11.962;2024-03-06T05:11:07;102202.16;;;18.12;39.07
13011;BME280;6786;57.632;11.962;2024-03-06T05:13:53;102195.91;;;17.98;39.16
13011;BME280;6786;57.632;11.962;2024-03-06T05:16:40;102206.63;;;18.12;39.19
13011;BME280;6786;57.632;11.962;2024-03-06T05:19:27;102114.03;;;17.51;39.27
13011;BME280;6786;57.632;11.962;2024-03-06T05:22:16;102210.28;;;18.11;39.23
13011;BME280;6786;57.632;11.962;2024-03-06T05:25:03;102198.19;;;18.04;39.27
13011;BME280;6786;57.632;11.962;2024-03-06T05:27:52;102122.41;;;17.45;39.10
13011;BME280;6786;57.632;11.962;2024-03-06T05:30:45;102187.41;;;17.91;39.31
13011;BME280;6786;57.632;11.962;2024-03-06T05:33:33;102196.25;;;17.92;39.16
13011;BME280;6786;57.632;11.962;2024-03-06T05:36:19;102232.53;;;18.11;39.24
13011;BME280;6786;57.632;11.962;2024-03-06T05:39:05;102228.22;;;18.09;39.09
13011;BME280;6786;57.632;11.962;2024-03-06T05:41:51;102233.31;;;18.13;39.29
13011;BME280;6786;57.632;11.962;2024-03-06T05:44:39;102160.31;;;17.68;39.18
13011;BME280;6786;57.632;11.962;2024-03-06T05:47:28;102247.56;;;18.14;39.33
13011;BME280;6786;57.632;11.962;2024-03-06T05:50:16;102149.03;;;17.63;39.54
13011;BME280;6786;57.632;11.962;2024-03-06T05:53:02;102240.47;;;18.13;39.28
13011;BME280;6786;57.632;11.962;2024-03-06T05:55:48;102237.03;;;18.11;39.43
13011;BME280;6786;57.632;11.962;2024-03-06T05:58:33;102210.69;;;17.89;39.38
13011;BME280;6786;57.632;11.962;2024-03-06T06:01:02;102233.59;;;18.09;39.38
13011;BME280;6786;57.632;11.962;2024-03-06T06:03:31;102228.59;;;18.03;39.34
13011;BME280;6786;57.632;11.962;2024-03-06T06:06:01;102241.59;;;18.09;39.33
13011;BME280;6786;57.632;11.962;2024-03-06T06:08:30;102240.66;;;18.10;39.38
13011;BME280;6786;57.632;11.962;2024-03-06T06:10:58;102230.31;;;18.04;39.61
13011;BME280;6786;57.632;11.962;2024-03-06T06:13:26;102233.22;;;18.15;39.73
13011;BME280;6786;57.632;11.962;2024-03-06T06:15:58;102243.53;;;18.21;39.75
13011;BME280;6786;57.632;11.962;2024-03-06T06:18:26;102170.25;;;17.80;39.78
13011;BME280;6786;57.632;11.962;2024-03-06T06:20:54;102135.06;;;17.57;39.73
13011;BME280;6786;57.632;11.962;2024-03-06T06:23:24;102253.88;;;18.27;39.78
13011;BME280;6786;57.632;11.962;2024-03-06T06:25:52;102260.94;;;18.28;39.72
13011;BME280;6786;57.632;11.962;2024-03-06T06:28:21;102213.41;;;18.03;39.85
13011;BME280;6786;57.632;11.962;2024-03-06T06:30:49;102258.09;;;18.31;40.05
13011;BME280;6786;57.632;11.962;2024-03-06T06:33:19;102184.13;;;17.86;39.89
13011;BME280;6786;57.632;11.962;2024-03-06T06:35:57;102264.22;;;18.33;39.89
13011;BME280;6786;57.632;11.962;2024-03-06T06:38:26;102276.63;;;18.34;40.06
13011;BME280;6786;57.632;11.962;2024-03-06T06:40:55;102276.63;;;18.34;40.03
13011;BME280;6786;57.632;11.962;2024-03-06T06:43:24;102280.09;;;18.36;40.06
13011;BME280;6786;57.632;11.962;2024-03-06T06:45:52;102284.50;;;18.37;39.97
13011;BME280;6786;57.632;11.962;2024-03-06T06:48:22;102218.09;;;18.00;39.97
13011;BME280;6786;57.632;11.962;2024-03-06T06:50:50;102272.44;;;18.30;39.98
13011;BME280;6786;57.632;11.962;2024-03-06T06:53:19;102287.19;;;18.37;39.95
13011;BME280;6786;57.632;11.962;2024-03-06T06:55:49;102299.59;;;18.38;39.97
13011;BME280;6786;57.632;11.962;2024-03-06T06:58:17;102305.13;;;18.35;40.09
13011;BME280;6786;57.632;11.962;2024-03-06T07:00:47;102301.50;;;18.36;39.78
13011;BME280;6786;57.632;11.962;2024-03-06T07:03:15;102313.16;;;18.35;39.85
13011;BME280;6786;57.632;11.962;2024-03-06T07:05:43;102330.94;;;18.36;39.97
13011;BME280;6786;57.632;11.962;2024-03-06T07:08:11;102320.19;;;18.37;39.96
13011;BME280;6786;57.632;11.962;2024-03-06T07:10:40;102322.78;;;18.39;40.01
13011;BME280;6786;57.632;11.962;2024-03-06T07:13:09;102316.69;;;18.35;39.91
13011;BME280;6786;57.632;11.962;2024-03-06T07:15:37;102302.06;;;18.27;39.99
13011;BME280;6786;57.632;11.962;2024-03-06T07:18:06;102327.94;;;18.42;39.96
13011;BME280;6786;57.632;11.962;2024-03-06T07:20:34;102335.00;;;18.43;39.98
13011;BME280;6786;57.632;11.962;2024-03-06T07:23:02;102333.28;;;18.42;39.86
13011;BME280;6786;57.632;11.962;2024-03-06T07:25:31;102320.25;;;18.36;39.88
13011;BME280;6786;57.632;11.962;2024-03-06T07:27:59;102341.16;;;18.45;40.10
13011;BME280;6786;57.632;11.962;2024-03-06T07:30:39;102336.72;;;18.44;39.95
13011;BME280;6786;57.632;11.962;2024-03-06T07:33:07;102341.25;;;18.43;40.01
13011;BME280;6786;57.632;11.962;2024-03-06T07:35:36;102267.75;;;18.04;39.77
13011;BME280;6786;57.632;11.962;2024-03-06T07:38:06;102343.81;;;18.45;39.96
13011;BME280;6786;57.632;11.962;2024-03-06T07:40:34;102340.38;;;18.43;39.83
13011;BME280;6786;57.632;11.962;2024-03-06T07:43:03;102348.13;;;18.47;39.87
13011;BME280;6786;57.632;11.962;2024-03-06T07:45:31;102341.88;;;18.47;39.89
13011;BME280;6786;57.632;11.962;2024-03-06T07:48:01;102345.53;;;18.46;39.78
13011;BME280;6786;57.632;11.962;2024-03-06T07:50:29;102349.00;;;18.48;39.79
13011;BME280;6786;57.632;11.962;2024-03-06T07:52:58;102349.00;;;18.48;39.94
13011;BME280;6786;57.632;11.962;2024-03-06T07:55:26;102349.00;;;18.48;39.78
13011;BME280;6786;57.632;11.962;2024-03-06T07:57:55;102278.28;;;18.07;39.77
13011;BME280;6786;57.632;11.962;2024-03-06T08:00:23;102306.81;;;18.22;39.86
13011;BME280;6786;57.632;11.962;2024-03-06T08:02:51;102347.44;;;18.44;39.77
13011;BME280;6786;57.632;11.962;2024-03-06T08:05:21;102366.78;;;18.49;39.88
13011;BME280;6786;57.632;11.962;2024-03-06T08:07:49;102361.41;;;18.49;39.94
13011;BME280;6786;57.632;11.962;2024-03-06T08:10:17;102347.63;;;18.41;39.91
13011;BME280;6786;57.632;11.962;2024-03-06T08:12:46;102328.63;;;18.30;39.84
13011;BME280;6786;57.632;11.962;2024-03-06T08:15:15;102365.06;;;18.48;39.81
13011;BME280;6786;57.632;11.962;2024-03-06T08:17:43;102365.25;;;18.45;39.79
13011;BME280;6786;57.632;11.962;2024-03-06T08:20:12;102377.47;;;18.49;39.86
13011;BME280;6786;57.632;11.962;2024-03-06T08:22:42;102371.25;;;18.48;39.79
13011;BME280;6786;57.632;11.962;2024-03-06T08:25:11;102377.66;;;18.46;39.83
13011;BME280;6786;57.632;11.962;2024-03-06T08:27:40;102377.47;;;18.49;39.82
13011;BME280;6786;57.632;11.962;2024-03-06T08:30:09;102306.97;;;18.05;39.94
13011;BME280;6786;57.632;11.962;2024-03-06T08:32:38;102215.63;;;17.51;39.96
13011;BME280;6786;57.632;11.962;2024-03-06T08:35:09;102378.25;;;18.51;39.70
13011;BME280;6786;57.632;11.962;2024-03-06T08:37:40;102377.31;;;18.52;39.82
13011;BME280;6786;57.632;11.962;2024-03-06T08:40:11;102391.66;;;18.51;39.95
13011;BME280;6786;57.632;11.962;2024-03-06T08:42:42;102393.53;;;18.49;39.91
13011;BME280;6786;57.632;11.962;2024-03-06T08:45:11;102339.38;;;18.14;39.86
13011;BME280;6786;57.632;11.962;2024-03-06T08:47:39;102391.84;;;18.48;39.81
13011;BME280;6786;57.632;11.962;2024-03-06T08:50:09;102389.25;;;18.46;39.91
13011;BME280;6786;57.632;11.962;2024-03-06T08:52:37;102395.44;;;18.47;39.82
13011;BME280;6786;57.632;11.962;2024-03-06T08:55:06;102400.78;;;18.47;39.87
13011;BME280;6786;57.632;11.962;2024-03-06T08:57:36;102392.00;;;18.45;39.80
13011;BME280;6786;57.632;11.962;2024-03-06T09:00:06;102404.25;;;18.49;39.90
13011;BME280;6786;57.632;11.962;2024-03-06T09:02:37;102402.53;;;18.48;39.85
13011;BME280;6786;57.632;11.962;2024-03-06T09:05:27;102402.53;;;18.48;39.58
13011;BME280;6786;57.632;11.962;2024-03-06T09:07:56;102330.09;;;18.06;39.79
13011;BME280;6786;57.632;11.962;2024-03-06T09:10:28;102407.03;;;18.47;39.80
13011;BME280;6786;57.632;11.962;2024-03-06T09:12:58;102408.81;;;18.47;39.79
13011;BME280;6786;57.632;11.962;2024-03-06T09:15:26;102318.03;;;17.99;39.81
13011;BME280;6786;57.632;11.962;2024-03-06T09:17:55;102412.66;;;18.43;39.80
13011;BME280;6786;57.632;11.962;2024-03-06T09:20:24;102404.53;;;18.44;39.84
13011;BME280;6786;57.632;11.962;2024-03-06T09:22:53;102417.03;;;18.44;39.86
13011;BME280;6786;57.632;11.962;2024-03-06T09:25:23;102419.44;;;18.48;39.81
13011;BME280;6786;57.632;11.962;2024-03-06T09:27:56;102413.44;;;18.45;39.81
13011;BME280;6786;57.632;11.962;2024-03-06T09:30:25;102427.75;;;18.44;39.87
13011;BME280;6786;57.632;11.962;2024-03-06T09:32:55;102326.69;;;17.88;39.69
13011;BME280;6786;57.632;11.962;2024-03-06T09:35:23;102409.97;;;18.43;39.95
13011;BME280;6786;57.632;11.962;2024-03-06T09:37:51;102412.66;;;18.43;39.87
13011;BME280;6786;57.632;11.962;2024-03-06T09:40:20;102305.81;;;17.63;39.93
13011;BME280;6786;57.632;11.962;2024-03-06T09:42:50;102419.72;;;18.44;39.71
13011;BME280;6786;57.632;11.962;2024-03-06T09:45:18;102413.94;;;18.36;39.81
13011;BME280;6786;57.632;11.962;2024-03-06T09:47:50;102320.81;;;17.82;39.56
13011;BME280;6786;57.632;11.962;2024-03-06T09:50:23;102420.88;;;18.40;39.55
13011;BME280;6786;57.632;11.962;2024-03-06T09:52:55;102420.88;;;18.40;39.71
13011;BME280;6786;57.632;11.962;2024-03-06T09:55:25;102359.25;;;17.95;39.67
13011;BME280;6786;57.632;11.962;2024-03-06T09:57:54;102442.09;;;18.43;39.71
13011;BME280;6786;57.632;11.962;2024-03-06T10:00:23;102439.34;;;18.44;39.84
13011;BME280;6786;57.632;11.962;2024-03-06T10:02:57;102441.91;;;18.46;39.79
13011;BME280;6786;57.632;11.962;2024-03-06T10:05:27;102292.03;;;17.55;39.68
13011;BME280;6786;57.632;11.962;2024-03-06T10:07:57;102442.09;;;18.43;39.68
13011;BME280;6786;57.632;11.962;2024-03-06T10:10:27;102444.16;;;18.38;39.63
13011;BME280;6786;57.632;11.962;2024-03-06T10:12:55;102414.66;;;18.24;39.72
13011;BME280;6786;57.632;11.962;2024-03-06T10:15:29;102443.31;;;18.37;39.62
13011;BME280;6786;57.632;11.962;2024-03-06T10:18:12;102442.47;;;18.37;39.15
13011;BME280;6786;57.632;11.962;2024-03-06T10:20:41;102449.66;;;18.35;39.46
13011;BME280;6786;57.632;11.962;2024-03-06T10:23:12;102440.88;;;18.33;39.46
13011;BME280;6786;57.632;11.962;2024-03-06T10:25:42;102449.00;;;18.31;39.43
13011;BME280;6786;57.632;11.962;2024-03-06T10:28:11;102442.94;;;18.28;39.50
13011;BME280;6786;57.632;11.962;2024-03-06T10:30:40;102444.66;;;18.29;39.48
13011;BME280;6786;57.632;11.962;2024-03-06T10:33:12;102454.53;;;18.28;39.48
13011;BME280;6786;57.632;11.962;2024-03-06T10:35:42;102451.94;;;18.27;39.58
13011;BME280;6786;57.632;11.962;2024-03-06T10:38:11;102446.94;;;18.21;39.50
13011;BME280;6786;57.632;11.962;2024-03-06T10:40:41;102362.59;;;17.69;39.59
13011;BME280;6786;57.632;11.962;2024-03-06T10:43:11;102452.97;;;18.24;39.57
13011;BME280;6786;57.632;11.962;2024-03-06T10:45:41;102448.47;;;18.25;39.36
13011;BME280;6786;57.632;11.962;2024-03-06T10:48:15;102455.56;;;18.26;39.39
13011;BME280;6786;57.632;11.962;2024-03-06T10:50:44;102449.53;;;18.22;39.43
13011;BME280;6786;57.632;11.962;2024-03-06T10:53:15;102288.38;;;17.25;39.53
13011;BME280;6786;57.632;11.962;2024-03-06T10:55:49;102457.47;;;18.24;39.46
13011;BME280;6786;57.632;11.962;2024-03-06T10:58:18;102385.78;;;17.84;39.29
13011;BME280;6786;57.632;11.962;2024-03-06T11:00:48;102455.72;;;18.23;39.44
13011;BME280;6786;57.632;11.962;2024-03-06T11:03:18;102453.25;;;18.20;39.34
13011;BME280;6786;57.632;11.962;2024-03-06T11:05:47;102457.66;;;18.21;39.38
13011;BME280;6786;57.632;11.962;2024-03-06T11:08:18;102455.06;;;18.19;39.46
13011;BME280;6786;57.632;11.962;2024-03-06T11:10:47;102455.94;;;18.20;39.38
13011;BME280;6786;57.632;11.962;2024-03-06T11:13:23;102457.81;;;18.18;39.18
13011;BME280;6786;57.632;11.962;2024-03-06T11:15:56;102461.56;;;18.15;39.51
13011;BME280;6786;57.632;11.962;2024-03-06T11:18:45;102465.06;;;18.16;38.93
13011;BME280;6786;57.632;11.962;2024-03-06T11:21:31;102447.81;;;18.06;39.11
13011;BME280;6786;57.632;11.962;2024-03-06T11:24:16;102457.03;;;18.16;38.97
13011;BME280;6786;57.632;11.962;2024-03-06T11:26:47;102337.69;;;17.35;39.39
13011;BME280;6786;57.632;11.962;2024-03-06T11:29:16;102465.84;;;18.18;39.39
13011;BME280;6786;57.632;11.962;2024-03-06T11:32:06;102481.13;;;18.16;38.79
13011;BME280;6786;57.632;11.962;2024-03-06T11:34:37;102384.50;;;17.59;39.20
13011;BME280;6786;57.632;11.962;2024-03-06T11:37:07;102459.72;;;18.16;40.09
13011;BME280;6786;57.632;11.962;2024-03-06T11:39:38;102454.00;;;18.22;40.60
13011;BME280;6786;57.632;11.962;2024-03-06T11:42:08;102424.69;;;18.05;40.52
13011;BME280;6786;57.632;11.962;2024-03-06T11:44:37;102360.88;;;17.68;40.21
13011;BME280;6786;57.632;11.962;2024-03-06T11:47:20;102450.38;;;18.23;40.08
13011;BME280;6786;57.632;11.962;2024-03-06T11:49:52;102418.81;;;17.98;40.11
13011;BME280;6786;57.632;11.962;2024-03-06T11:52:21;102464.88;;;18.19;40.12
13011;BME280;6786;57.632;11.962;2024-03-06T11:54:51;102466.63;;;18.20;40.00
13011;BME280;6786;57.632;11.962;2024-03-06T11:57:20;102459.53;;;18.19;40.14
13011;BME280;6786;57.632;11.962;2024-03-06T11:59:52;102461.47;;;18.17;40.10
13011;BME280;6786;57.632;11.962;2024-03-06T12:02:20;102471.03;;;18.21;39.99
13011;BME280;6786;57.632;11.962;2024-03-06T12:04:50;102472.16;;;18.17;40.11
13011;BME280;6786;57.632;11.962;2024-03-06T12:07:20;102466.81;;;18.17;40.00
13011;BME280;6786;57.632;11.962;2024-03-06T12:09:48;102458.00;;;18.15;40.08
13011;BME280;6786;57.632;11.962;2024-03-06T12:12:19;102378.63;;;17.69;40.13
13011;BME280;6786;57.632;11.962;2024-03-06T12:14:57;102469.03;;;18.24;40.33
13011;BME280;6786;57.632;11.962;2024-03-06T12:17:26;102466.25;;;18.26;40.35
13011;BME280;6786;57.632;11.962;2024-03-06T12:19:56;102388.28;;;17.87;40.42
13011;BME280;6786;57.632;11.962;2024-03-06T12:22:25;102447.13;;;18.18;40.38
13011;BME280;6786;57.632;11.962;2024-03-06T12:24:58;102462.47;;;18.30;40.49
13011;BME280;6786;57.632;11.962;2024-03-06T12:27:27;102460.56;;;18.32;40.52
13011;BME280;6786;57.632;11.962;2024-03-06T12:29:55;102462.31;;;18.33;40.46
13011;BME280;6786;57.632;11.962;2024-03-06T12:32:23;102458.84;;;18.31;40.53
13011;BME280;6786;57.632;11.962;2024-03-06T12:34:58;102455.19;;;18.32;40.62
13011;BME280;6786;57.632;11.962;2024-03-06T12:37:31;102462.97;;;18.36;40.80
13011;BME280;6786;57.632;11.962;2024-03-06T12:40:01;102463.88;;;18.37;40.64
13011;BME280;6786;57.632;11.962;2024-03-06T12:42:31;102470.09;;;18.37;40.74
13011;BME280;6786;57.632;11.962;2024-03-06T12:45:00;102465.59;;;18.38;40.76
13011;BME280;6786;57.632;11.962;2024-03-06T12:47:33;102467.34;;;18.39;40.84
13011;BME280;6786;57.632;11.962;2024-03-06T12:50:04;102472.69;;;18.39;40.76
13011;BME280;6786;57.632;11.962;2024-03-06T12:52:34;102470.00;;;18.39;40.75
13011;BME280;6786;57.632;11.962;2024-03-06T12:55:03;102467.34;;;18.39;40.64
13011;BME280;6786;57.632;11.962;2024-03-06T12:57:32;102476.13;;;18.41;40.46
13011;BME280;6786;57.632;11.962;2024-03-06T13:00:01;102478.63;;;18.44;40.73
13011;BME280;6786;57.632;11.962;2024-03-06T13:02:29;102469.75;;;18.43;40.66
13011;BME280;6786;57.632;11.962;2024-03-06T13:04:58;102465.22;;;18.44;40.60
13011;BME280;6786;57.632;11.962;2024-03-06T13:07:28;102468.69;;;18.46;40.62
13011;BME280;6786;57.632;11.962;2024-03-06T13:09:56;102471.97;;;18.51;40.76